sensor_id;sensor_type;location;lat;lon;timestamp;temperature;humidity
59857;DHT22;45733;52.668;6.860;2023-09-19T00:00:34;15.70;99.90
59857;DHT22;45733;52.668;6.860;2023-09-19T00:03:01;15.70;99.90
59857;DHT22;45733;52.668;6.860;2023-09-19T00:05:28;15.80;99.90
59857;DHT22;45733;52.668;6.860;2023-09-19T00:07:55;15.60;99.90
59857;DHT22;45733;52.668;6.860;2023-09-19T00:10:25;15.50;99.90
59857;DHT22;45733;52.668;6.860;2023-09-19T00:12:55;15.50;99.90
59857;DHT22;45733;52.668;6.860;2023-09-19T00:15:22;15.50;99.90
59857;DHT22;45733;52.668;6.860;2023-09-19T00:17:48;15.30;99.90
59857;DHT22;45733;52.668;6.860;2023-09-19T00:20:14;15.40;99.90
59857;DHT22;45733;52.668;6.860;2023-09-19T00:22:43;15.20;99.90
59857;DHT22;45733;52.668;6.860;2023-09-19T00:25:09;15.20;99.90
59857;DHT22;45733;52.668;6.860;2023-09-19T00:27:36;15.00;99.90
59857;DHT22;45733;52.668;6.860;2023-09-19T00:30:10;15.10;99.90
59857;DHT22;45733;52.668;6.860;2023-09-19T00:32:41;15.00;99.90
59857;DHT22;45733;52.668;6.860;2023-09-19T00:35:06;15.20;99.90
59857;DHT22;45733;52.668;6.860;2023-09-19T00:37:36;15.00;99.90
59857;DHT22;45733;52.668;6.860;2023-09-19T00:40:03;15.20;99.90
59857;DHT22;45733;52.668;6.860;2023-09-19T00:42:31;15.00;99.90
59857;DHT22;45733;52.668;6.860;2023-09-19T00:44:57;15.00;99.90
59857;DHT22;45733;52.668;6.860;2023-09-19T00:47:22;15.10;99.90
59857;DHT22;45733;52.668;6.860;2023-09-19T00:49:48;14.90;99.90
59857;DHT22;45733;52.668;6.860;2023-09-19T00:52:18;15.20;99.90
59857;DHT22;45733;52.668;6.860;2023-09-19T00:54:48;15.10;99.90
59857;DHT22;45733;52.668;6.860;2023-09-19T00:57:14;15.10;99.90
59857;DHT22;45733;52.668;6.860;2023-09-19T00:59:45;14.90;99.90
59857;DHT22;45733;52.668;6.860;2023-09-19T01:02:10;15.10;99.90
59857;DHT22;45733;52.668;6.860;2023-09-19T01:04:43;14.80;99.90
59857;DHT22;45733;52.668;6.860;2023-09-19T01:07:09;15.30;99.90
59857;DHT22;45733;52.668;6.860;2023-09-19T01:09:35;15.20;99.90
59857;DHT22;45733;52.668;6.860;2023-09-19T01:12:04;15.10;99.90
59857;DHT22;45733;52.668;6.860;2023-09-19T01:17:20;14.90;99.90
59857;DHT22;45733;52.668;6.860;2023-09-19T01:20:10;15.20;99.90
59857;DHT22;45733;52.668;6.860;2023-09-19T01:23:00;15.10;99.90
59857;DHT22;45733;52.668;6.860;2023-09-19T01:28:45;15.40;99.90
59857;DHT22;45733;52.668;6.860;2023-09-19T01:31:21;15.40;99.90
59857;DHT22;45733;52.668;6.860;2023-09-19T01:33:57;15.00;99.90
59857;DHT22;45733;52.668;6.860;2023-09-19T01:36:28;15.10;99.90
59857;DHT22;45733;52.668;6.860;2023-09-19T01:38:55;15.20;99.90
59857;DHT22;45733;52.668;6.860;2023-09-19T01:41:29;15.40;99.90
59857;DHT22;45733;52.668;6.860;2023-09-19T01:44:00;15.00;99.90
59857;DHT22;45733;52.668;6.860;2023-09-19T01:46:41;15.00;99.90
59857;DHT22;45733;52.668;6.860;2023-09-19T01:54:27;15.10;99.90
59857;DHT22;45733;52.668;6.860;2023-09-19T01:59:50;15.10;99.90
59857;DHT22;45733;52.668;6.860;2023-09-19T02:02:20;15.10;99.90
59857;DHT22;45733;52.668;6.860;2023-09-19T02:04:48;15.00;99.90
59857;DHT22;45733;52.668;6.860;2023-09-19T02:07:14;15.10;99.90
59857;DHT22;45733;52.668;6.860;2023-09-19T02:09:40;14.90;99.90
59857;DHT22;45733;52.668;6.860;2023-09-19T02:12:09;14.70;99.90
59857;DHT22;45733;52.668;6.860;2023-09-19T02:14:35;14.90;99.90
59857;DHT22;45733;52.668;6.860;2023-09-19T02:17:02;14.70;99.90
59857;DHT22;45733;52.668;6.860;2023-09-19T02:19:32;14.70;99.90
59857;DHT22;45733;52.668;6.860;2023-09-19T02:21:59;14.70;99.90
59857;DHT22;45733;52.668;6.860;2023-09-19T02:24:25;14.70;99.90
59857;DHT22;45733;52.668;6.860;2023-09-19T02:26:52;14.90;99.90
59857;DHT22;45733;52.668;6.860;2023-09-19T02:29:18;14.70;99.90
59857;DHT22;45733;52.668;6.860;2023-09-19T02:31:46;14.80;99.90
59857;DHT22;45733;52.668;6.860;2023-09-19T02:34:12;14.50;99.90
59857;DHT22;45733;52.668;6.860;2023-09-19T02:36:37;14.60;99.90
59857;DHT22;45733;52.668;6.860;2023-09-19T02:39:03;14.70;99.90
59857;DHT22;45733;52.668;6.860;2023-09-19T02:41:33;14.50;99.90
59857;DHT22;45733;52.668;6.860;2023-09-19T02:43:59;14.70;99.90
59857;DHT22;45733;52.668;6.860;2023-09-19T02:46:25;14.60;99.90
59857;DHT22;45733;52.668;6.860;2023-09-19T02:48:50;14.50;99.90
59857;DHT22;45733;52.668;6.860;2023-09-19T02:51:16;14.50;99.90
59857;DHT22;45733;52.668;6.860;2023-09-19T02:53:42;14.50;99.90
59857;DHT22;45733;52.668;6.860;2023-09-19T02:56:07;14.70;99.90
59857;DHT22;45733;52.668;6.860;2023-09-19T02:58:35;14.50;99.90
59857;DHT22;45733;52.668;6.860;2023-09-19T03:01:08;14.70;99.90
59857;DHT22;45733;52.668;6.860;2023-09-19T03:03:34;14.50;99.90
59857;DHT22;45733;52.668;6.860;2023-09-19T03:05:59;14.60;99.90
59857;DHT22;45733;52.668;6.860;2023-09-19T03:08:29;14.50;99.90
59857;DHT22;45733;52.668;6.860;2023-09-19T03:10:55;14.50;99.90
59857;DHT22;45733;52.668;6.860;2023-09-19T03:13:20;14.50;99.90
59857;DHT22;45733;52.668;6.860;2023-09-19T03:15:49;14.50;99.90
59857;DHT22;45733;52.668;6.860;2023-09-19T03:18:16;14.60;99.90
59857;DHT22;45733;52.668;6.860;2023-09-19T03:20:41;14.50;99.90
59857;DHT22;45733;52.668;6.860;2023-09-19T03:23:07;14.60;99.90
59857;DHT22;45733;52.668;6.860;2023-09-19T03:25:34;14.40;99.90
59857;DHT22;45733;52.668;6.860;2023-09-19T03:28:01;14.60;99.90
59857;DHT22;45733;52.668;6.860;2023-09-19T03:30:31;14.60;99.90
59857;DHT22;45733;52.668;6.860;2023-09-19T03:32:58;14.60;99.90
59857;DHT22;45733;52.668;6.860;2023-09-19T03:35:23;14.60;99.90
59857;DHT22;45733;52.668;6.860;2023-09-19T03:37:49;14.70;99.90
59857;DHT22;45733;52.668;6.860;2023-09-19T03:40:15;14.60;99.90
59857;DHT22;45733;52.668;6.860;2023-09-19T03:42:41;14.70;99.90
59857;DHT22;45733;52.668;6.860;2023-09-19T03:45:10;14.80;99.90
59857;DHT22;45733;52.668;6.860;2023-09-19T03:47:44;14.80;99.90
59857;DHT22;45733;52.668;6.860;2023-09-19T03:50:12;15.00;99.90
59857;DHT22;45733;52.668;6.860;2023-09-19T03:52:40;15.00;99.90
59857;DHT22;45733;52.668;6.860;2023-09-19T03:55:06;15.00;99.90
59857;DHT22;45733;52.668;6.860;2023-09-19T03:57:32;14.90;99.90
59857;DHT22;45733;52.668;6.860;2023-09-19T03:59:58;14.90;99.90
59857;DHT22;45733;52.668;6.860;2023-09-19T04:02:24;15.10;99.90
59857;DHT22;45733;52.668;6.860;2023-09-19T04:04:53;14.90;99.90
59857;DHT22;45733;52.668;6.860;2023-09-19T04:07:19;15.10;99.90
59857;DHT22;45733;52.668;6.860;2023-09-19T04:09:47;14.90;99.90
59857;DHT22;45733;52.668;6.860;2023-09-19T04:12:14;15.00;99.90
59857;DHT22;45733;52.668;6.860;2023-09-19T04:14:42;14.90;99.90
59857;DHT22;45733;52.668;6.860;2023-09-19T04:17:11;15.00;99.90
59857;DHT22;45733;52.668;6.860;2023-09-19T04:19:37;15.00;99.90
59857;DHT22;45733;52.668;6.860;2023-09-19T04:22:07;15.00;99.90
59857;DHT22;45733;52.668;6.860;2023-09-19T04:24:32;14.90;99.90
59857;DHT22;45733;52.668;6.860;2023-09-19T04:26:59;15.10;99.90
59857;DHT22;45733;52.668;6.860;2023-09-19T04:29:28;15.00;99.90
59857;DHT22;45733;52.668;6.860;2023-09-19T04:31:54;15.00;99.90
59857;DHT22;45733;52.668;6.860;2023-09-19T04:34:20;14.80;99.90
59857;DHT22;45733;52.668;6.860;2023-09-19T04:36:46;14.90;99.90
59857;DHT22;45733;52.668;6.860;2023-09-19T04:39:12;14.90;99.90
59857;DHT22;45733;52.668;6.860;2023-09-19T04:41:39;14.80;99.90
59857;DHT22;45733;52.668;6.860;2023-09-19T04:44:09;14.70;99.90
59857;DHT22;45733;52.668;6.860;2023-09-19T04:46:37;14.60;99.90
59857;DHT22;45733;52.668;6.860;2023-09-19T04:49:03;14.60;99.90
59857;DHT22;45733;52.668;6.860;2023-09-19T04:51:31;14.40;99.90
59857;DHT22;45733;52.668;6.860;2023-09-19T04:54:00;14.40;99.90
59857;DHT22;45733;52.668;6.860;2023-09-19T04:56:26;14.50;99.90
59857;DHT22;45733;52.668;6.860;2023-09-19T04:58:54;14.40;99.90
59857;DHT22;45733;52.668;6.860;2023-09-19T05:01:29;14.40;99.90
59857;DHT22;45733;52.668;6.860;2023-09-19T05:03:54;14.40;99.90
59857;DHT22;45733;52.668;6.860;2023-09-19T05:06:20;14.40;99.90
59857;DHT22;45733;52.668;6.860;2023-09-19T05:08:51;14.40;99.90
59857;DHT22;45733;52.668;6.860;2023-09-19T05:11:21;14.40;99.90
59857;DHT22;45733;52.668;6.860;2023-09-19T05:13:51;14.30;99.90
59857;DHT22;45733;52.668;6.860;2023-09-19T05:16:21;14.30;99.90
59857;DHT22;45733;52.668;6.860;2023-09-19T05:18:49;14.30;99.90
59857;DHT22;45733;52.668;6.860;2023-09-19T05:21:15;14.20;99.90
59857;DHT22;45733;52.668;6.860;2023-09-19T05:23:40;14.20;99.90
59857;DHT22;45733;52.668;6.860;2023-09-19T05:26:07;14.20;99.90
59857;DHT22;45733;52.668;6.860;2023-09-19T05:28:33;14.20;99.90
59857;DHT22;45733;52.668;6.860;2023-09-19T05:31:01;14.20;99.90
59857;DHT22;45733;52.668;6.860;2023-09-19T05:33:27;14.20;99.90
59857;DHT22;45733;52.668;6.860;2023-09-19T05:35:53;14.20;99.90
59857;DHT22;45733;52.668;6.860;2023-09-19T05:38:19;14.20;99.90
59857;DHT22;45733;52.668;6.860;2023-09-19T05:40:46;14.20;99.90
59857;DHT22;45733;52.668;6.860;2023-09-19T05:43:11;14.10;99.90
59857;DHT22;45733;52.668;6.860;2023-09-19T05:45:38;14.10;99.90
59857;DHT22;45733;52.668;6.860;2023-09-19T05:48:11;14.10;99.90
59857;DHT22;45733;52.668;6.860;2023-09-19T05:50:39;14.10;99.90
59857;DHT22;45733;52.668;6.860;2023-09-19T05:53:08;14.10;99.90
59857;DHT22;45733;52.668;6.860;2023-09-19T05:55:43;14.10;99.90
59857;DHT22;45733;52.668;6.860;2023-09-19T05:58:09;14.10;99.90
59857;DHT22;45733;52.668;6.860;2023-09-19T06:00:36;14.20;99.90
59857;DHT22;45733;52.668;6.860;2023-09-19T06:03:04;14.20;99.90
59857;DHT22;45733;52.668;6.860;2023-09-19T06:05:33;14.30;99.90
59857;DHT22;45733;52.668;6.860;2023-09-19T06:08:02;14.30;99.90
59857;DHT22;45733;52.668;6.860;2023-09-19T06:10:49;14.50;99.90
59857;DHT22;45733;52.668;6.860;2023-09-19T06:13:18;14.60;99.90
59857;DHT22;45733;52.668;6.860;2023-09-19T06:15:45;14.80;99.90
59857;DHT22;45733;52.668;6.860;2023-09-19T06:18:12;14.90;99.90
59857;DHT22;45733;52.668;6.860;2023-09-19T06:20:48;15.10;99.90
59857;DHT22;45733;52.668;6.860;2023-09-19T06:23:16;15.30;99.90
59857;DHT22;45733;52.668;6.860;2023-09-19T06:25:43;15.50;99.90
59857;DHT22;45733;52.668;6.860;2023-09-19T06:28:09;15.40;99.90
59857;DHT22;45733;52.668;6.860;2023-09-19T06:30:38;15.20;99.90
59857;DHT22;45733;52.668;6.860;2023-09-19T06:33:09;15.00;99.90
59857;DHT22;45733;52.668;6.860;2023-09-19T06:35:37;15.00;99.90
59857;DHT22;45733;52.668;6.860;2023-09-19T06:38:03;14.90;99.90
59857;DHT22;45733;52.668;6.860;2023-09-19T06:40:29;14.90;99.90
59857;DHT22;45733;52.668;6.860;2023-09-19T06:42:56;14.90;99.90
59857;DHT22;45733;52.668;6.860;2023-09-19T06:45:22;14.90;99.90
59857;DHT22;45733;52.668;6.860;2023-09-19T06:47:51;14.80;99.90
59857;DHT22;45733;52.668;6.860;2023-09-19T06:50:21;14.80;99.90
59857;DHT22;45733;52.668;6.860;2023-09-19T06:52:51;14.90;99.90
59857;DHT22;45733;52.668;6.860;2023-09-19T06:55:20;14.90;99.90
59857;DHT22;45733;52.668;6.860;2023-09-19T06:57:49;14.90;99.90
59857;DHT22;45733;52.668;6.860;2023-09-19T07:00:15;14.90;99.90
59857;DHT22;45733;52.668;6.860;2023-09-19T07:03:04;15.00;99.90
59857;DHT22;45733;52.668;6.860;2023-09-19T07:05:34;15.00;99.90
59857;DHT22;45733;52.668;6.860;2023-09-19T07:08:07;15.20;99.90
59857;DHT22;45733;52.668;6.860;2023-09-19T07:10:33;15.20;99.90
59857;DHT22;45733;52.668;6.860;2023-09-19T07:13:00;15.20;99.90
59857;DHT22;45733;52.668;6.860;2023-09-19T07:15:28;15.40;99.90
59857;DHT22;45733;52.668;6.860;2023-09-19T07:17:54;15.60;99.90
59857;DHT22;45733;52.668;6.860;2023-09-19T07:20:22;15.80;99.90
59857;DHT22;45733;52.668;6.860;2023-09-19T07:22:50;15.90;99.90
59857;DHT22;45733;52.668;6.860;2023-09-19T07:25:16;16.10;99.90
59857;DHT22;45733;52.668;6.860;2023-09-19T07:27:42;16.10;99.90
59857;DHT22;45733;52.668;6.860;2023-09-19T07:30:09;16.30;99.90
59857;DHT22;45733;52.668;6.860;2023-09-19T07:32:35;16.30;99.90
59857;DHT22;45733;52.668;6.860;2023-09-19T07:35:04;16.60;99.90
59857;DHT22;45733;52.668;6.860;2023-09-19T07:37:31;16.70;99.90
59857;DHT22;45733;52.668;6.860;2023-09-19T07:40:03;16.80;99.90
59857;DHT22;45733;52.668;6.860;2023-09-19T07:42:38;16.70;99.90
59857;DHT22;45733;52.668;6.860;2023-09-19T07:45:08;16.70;99.90
59857;DHT22;45733;52.668;6.860;2023-09-19T07:47:34;16.90;99.90
59857;DHT22;45733;52.668;6.860;2023-09-19T07:50:07;17.00;99.90
59857;DHT22;45733;52.668;6.860;2023-09-19T07:52:33;17.00;99.90
59857;DHT22;45733;52.668;6.860;2023-09-19T07:55:06;17.00;99.90
59857;DHT22;45733;52.668;6.860;2023-09-19T07:57:37;17.30;99.90
59857;DHT22;45733;52.668;6.860;2023-09-19T08:00:04;17.10;99.90
59857;DHT22;45733;52.668;6.860;2023-09-19T08:02:42;17.20;99.90
59857;DHT22;45733;52.668;6.860;2023-09-19T08:05:26;17.20;99.90
59857;DHT22;45733;52.668;6.860;2023-09-19T08:07:52;17.10;99.90
59857;DHT22;45733;52.668;6.860;2023-09-19T08:10:19;17.00;99.90
59857;DHT22;45733;52.668;6.860;2023-09-19T08:12:47;17.20;99.90
59857;DHT22;45733;52.668;6.860;2023-09-19T08:15:21;17.20;99.90
59857;DHT22;45733;52.668;6.860;2023-09-19T08:17:48;17.20;99.90
59857;DHT22;45733;52.668;6.860;2023-09-19T08:20:14;17.20;99.90
59857;DHT22;45733;52.668;6.860;2023-09-19T08:22:48;17.20;99.90
59857;DHT22;45733;52.668;6.860;2023-09-19T08:25:15;17.20;99.90
59857;DHT22;45733;52.668;6.860;2023-09-19T08:27:48;17.30;99.90
59857;DHT22;45733;52.668;6.860;2023-09-19T08:30:16;17.30;99.90
59857;DHT22;45733;52.668;6.860;2023-09-19T08:32:44;17.20;99.90
59857;DHT22;45733;52.668;6.860;2023-09-19T08:35:13;17.20;99.90
59857;DHT22;45733;52.668;6.860;2023-09-19T08:37:45;17.40;99.90
59857;DHT22;45733;52.668;6.860;2023-09-19T08:40:11;17.50;99.90
59857;DHT22;45733;52.668;6.860;2023-09-19T08:45:15;17.50;99.90
59857;DHT22;45733;52.668;6.860;2023-09-19T08:47:50;17.60;99.90
59857;DHT22;45733;52.668;6.860;2023-09-19T08:50:24;17.50;99.90
59857;DHT22;45733;52.668;6.860;2023-09-19T08:52:51;17.60;99.90
59857;DHT22;45733;52.668;6.860;2023-09-19T08:55:23;17.60;99.90
59857;DHT22;45733;52.668;6.860;2023-09-19T08:57:55;17.70;99.90
59857;DHT22;45733;52.668;6.860;2023-09-19T09:00:24;17.70;99.90
59857;DHT22;45733;52.668;6.860;2023-09-19T09:02:54;17.80;99.90
59857;DHT22;45733;52.668;6.860;2023-09-19T09:05:22;17.80;99.90
59857;DHT22;45733;52.668;6.860;2023-09-19T09:07:52;17.70;99.90
59857;DHT22;45733;52.668;6.860;2023-09-19T09:10:22;17.80;99.90
59857;DHT22;45733;52.668;6.860;2023-09-19T09:12:52;18.10;99.90
59857;DHT22;45733;52.668;6.860;2023-09-19T09:15:21;18.20;99.90
59857;DHT22;45733;52.668;6.860;2023-09-19T09:17:52;18.30;99.90
59857;DHT22;45733;52.668;6.860;2023-09-19T09:20:21;18.40;99.90
59857;DHT22;45733;52.668;6.860;2023-09-19T09:22:53;18.60;99.90
59857;DHT22;45733;52.668;6.860;2023-09-19T09:25:20;18.60;99.90
59857;DHT22;45733;52.668;6.860;2023-09-19T09:28:04;18.70;99.90
59857;DHT22;45733;52.668;6.860;2023-09-19T09:30:43;18.80;99.90
59857;DHT22;45733;52.668;6.860;2023-09-19T09:33:13;18.80;99.90
59857;DHT22;45733;52.668;6.860;2023-09-19T09:38:21;19.10;99.90
59857;DHT22;45733;52.668;6.860;2023-09-19T09:40:54;19.10;99.90
59857;DHT22;45733;52.668;6.860;2023-09-19T09:43:39;19.00;99.90
59857;DHT22;45733;52.668;6.860;2023-09-19T09:46:16;19.00;99.90
59857;DHT22;45733;52.668;6.860;2023-09-19T09:51:45;19.10;99.90
59857;DHT22;45733;52.668;6.860;2023-09-19T09:54:16;19.20;99.90
59857;DHT22;45733;52.668;6.860;2023-09-19T09:56:56;19.20;99.90
59857;DHT22;45733;52.668;6.860;2023-09-19T10:02:15;19.10;99.90
59857;DHT22;45733;52.668;6.860;2023-09-19T10:04:51;19.00;99.90
59857;DHT22;45733;52.668;6.860;2023-09-19T10:07:35;19.10;99.90
59857;DHT22;45733;52.668;6.860;2023-09-19T10:10:09;19.30;99.90
59857;DHT22;45733;52.668;6.860;2023-09-19T10:12:47;18.90;99.90
59857;DHT22;45733;52.668;6.860;2023-09-19T10:15:16;18.70;99.90
59857;DHT22;45733;52.668;6.860;2023-09-19T10:17:43;18.90;99.90
59857;DHT22;45733;52.668;6.860;2023-09-19T10:20:16;18.70;99.90
59857;DHT22;45733;52.668;6.860;2023-09-19T10:22:50;18.70;99.90
59857;DHT22;45733;52.668;6.860;2023-09-19T10:25:27;18.90;99.90
59857;DHT22;45733;52.668;6.860;2023-09-19T10:28:00;19.00;99.90
59857;DHT22;45733;52.668;6.860;2023-09-19T10:30:29;19.10;99.90
59857;DHT22;45733;52.668;6.860;2023-09-19T10:33:04;19.40;99.90
59857;DHT22;45733;52.668;6.860;2023-09-19T10:35:32;19.40;99.90
59857;DHT22;45733;52.668;6.860;2023-09-19T10:38:00;19.40;99.90
59857;DHT22;45733;52.668;6.860;2023-09-19T10:40:30;19.50;99.90
59857;DHT22;45733;52.668;6.860;2023-09-19T10:43:03;19.50;99.90
59857;DHT22;45733;52.668;6.860;2023-09-19T10:45:50;19.60;99.90
59857;DHT22;45733;52.668;6.860;2023-09-19T10:48:23;19.30;99.90
59857;DHT22;45733;52.668;6.860;2023-09-19T10:51:02;19.00;99.90
59857;DHT22;45733;52.668;6.860;2023-09-19T10:53:55;18.90;99.90
59857;DHT22;45733;52.668;6.860;2023-09-19T10:56:37;19.20;99.90
59857;DHT22;45733;52.668;6.860;2023-09-19T10:59:11;19.40;99.90
59857;DHT22;45733;52.668;6.860;2023-09-19T11:01:55;19.50;99.90
59857;DHT22;45733;52.668;6.860;2023-09-19T11:04:34;19.60;99.90
59857;DHT22;45733;52.668;6.860;2023-09-19T11:07:09;19.90;99.90
59857;DHT22;45733;52.668;6.860;2023-09-19T11:09:53;19.80;99.90
59857;DHT22;45733;52.668;6.860;2023-09-19T11:15:07;19.70;99.90
59857;DHT22;45733;52.668;6.860;2023-09-19T11:17:38;19.40;99.90
59857;DHT22;45733;52.668;6.860;2023-09-19T11:30:35;19.10;99.90
59857;DHT22;45733;52.668;6.860;2023-09-19T11:33:24;19.20;99.90
59857;DHT22;45733;52.668;6.860;2023-09-19T11:39:01;19.30;99.90
59857;DHT22;45733;52.668;6.860;2023-09-19T11:41:41;19.40;99.90
59857;DHT22;45733;52.668;6.860;2023-09-19T11:49:40;19.80;99.90
59857;DHT22;45733;52.668;6.860;2023-09-19T11:52:04;19.60;99.90
59857;DHT22;45733;52.668;6.860;2023-09-19T11:54:32;19.80;99.90
59857;DHT22;45733;52.668;6.860;2023-09-19T11:56:59;19.80;99.90
59857;DHT22;45733;52.668;6.860;2023-09-19T11:59:26;19.70;99.90
59857;DHT22;45733;52.668;6.860;2023-09-19T12:01:57;19.70;99.90
59857;DHT22;45733;52.668;6.860;2023-09-19T12:04:44;19.80;99.90
59857;DHT22;45733;52.668;6.860;2023-09-19T12:07:16;19.80;99.90
59857;DHT22;45733;52.668;6.860;2023-09-19T12:09:47;19.70;99.90
59857;DHT22;45733;52.668;6.860;2023-09-19T12:12:23;19.80;99.90
59857;DHT22;45733;52.668;6.860;2023-09-19T12:14:53;19.80;99.90
59857;DHT22;45733;52.668;6.860;2023-09-19T12:17:20;19.60;99.90
59857;DHT22;45733;52.668;6.860;2023-09-19T12:19:52;19.50;99.90
59857;DHT22;45733;52.668;6.860;2023-09-19T12:22:19;19.70;99.90
59857;DHT22;45733;52.668;6.860;2023-09-19T12:24:49;19.50;99.90
59857;DHT22;45733;52.668;6.860;2023-09-19T12:27:19;19.50;99.90
59857;DHT22;45733;52.668;6.860;2023-09-19T12:29:47;19.80;99.90
59857;DHT22;45733;52.668;6.860;2023-09-19T12:32:36;20.40;99.90
59857;DHT22;45733;52.668;6.860;2023-09-19T12:35:08;20.60;99.90
59857;DHT22;45733;52.668;6.860;2023-09-19T12:37:37;21.10;99.90
59857;DHT22;45733;52.668;6.860;2023-09-19T12:40:09;21.20;99.90
59857;DHT22;45733;52.668;6.860;2023-09-19T12:42:48;21.20;99.90
59857;DHT22;45733;52.668;6.860;2023-09-19T12:45:15;20.80;99.90
59857;DHT22;45733;52.668;6.860;2023-09-19T12:48:23;20.30;99.90
59857;DHT22;45733;52.668;6.860;2023-09-19T12:53:34;19.50;99.90
59857;DHT22;45733;52.668;6.860;2023-09-19T12:56:03;19.30;99.90
59857;DHT22;45733;52.668;6.860;2023-09-19T12:58:34;19.20;99.90
59857;DHT22;45733;52.668;6.860;2023-09-19T13:01:00;19.40;99.90
59857;DHT22;45733;52.668;6.860;2023-09-19T13:03:31;19.50;99.90
59857;DHT22;45733;52.668;6.860;2023-09-19T13:06:03;19.70;99.90
59857;DHT22;45733;52.668;6.860;2023-09-19T13:08:30;19.90;99.90
59857;DHT22;45733;52.668;6.860;2023-09-19T13:11:13;20.00;99.90
59857;DHT22;45733;52.668;6.860;2023-09-19T13:13:43;19.90;99.90
59857;DHT22;45733;52.668;6.860;2023-09-19T13:16:10;19.90;99.90
59857;DHT22;45733;52.668;6.860;2023-09-19T13:18:47;19.70;99.90
59857;DHT22;45733;52.668;6.860;2023-09-19T13:21:16;19.60;99.90
59857;DHT22;45733;52.668;6.860;2023-09-19T13:23:53;19.60;99.90
59857;DHT22;45733;52.668;6.860;2023-09-19T13:26:28;19.50;99.90
59857;DHT22;45733;52.668;6.860;2023-09-19T13:28:56;19.40;99.90
59857;DHT22;45733;52.668;6.860;2023-09-19T13:31:22;19.40;99.90
59857;DHT22;45733;52.668;6.860;2023-09-19T13:33:52;19.30;99.90
59857;DHT22;45733;52.668;6.860;2023-09-19T13:36:20;19.20;99.90
59857;DHT22;45733;52.668;6.860;2023-09-19T13:38:45;19.20;99.90
59857;DHT22;45733;52.668;6.860;2023-09-19T13:41:14;19.10;99.90
59857;DHT22;45733;52.668;6.860;2023-09-19T13:43:39;19.10;99.90
59857;DHT22;45733;52.668;6.860;2023-09-19T13:46:05;19.10;99.90
59857;DHT22;45733;52.668;6.860;2023-09-19T13:48:35;19.00;99.90
59857;DHT22;45733;52.668;6.860;2023-09-19T13:51:02;19.00;99.90
59857;DHT22;45733;52.668;6.860;2023-09-19T13:53:29;19.00;99.90
59857;DHT22;45733;52.668;6.860;2023-09-19T13:55:55;19.00;99.90
59857;DHT22;45733;52.668;6.860;2023-09-19T13:58:20;19.00;99.90
59857;DHT22;45733;52.668;6.860;2023-09-19T14:00:51;19.00;99.90
59857;DHT22;45733;52.668;6.860;2023-09-19T14:03:20;19.00;99.90
59857;DHT22;45733;52.668;6.860;2023-09-19T14:05:46;19.00;99.90
59857;DHT22;45733;52.668;6.860;2023-09-19T14:08:17;19.00;99.90
59857;DHT22;45733;52.668;6.860;2023-09-19T14:10:45;19.00;99.90
59857;DHT22;45733;52.668;6.860;2023-09-19T14:13:11;19.10;99.90
59857;DHT22;45733;52.668;6.860;2023-09-19T14:15:38;19.30;99.90
59857;DHT22;45733;52.668;6.860;2023-09-19T14:18:04;19.30;99.90
59857;DHT22;45733;52.668;6.860;2023-09-19T14:20:30;19.30;99.90
59857;DHT22;45733;52.668;6.860;2023-09-19T14:23:01;19.40;99.90
59857;DHT22;45733;52.668;6.860;2023-09-19T14:25:27;19.50;99.90
59857;DHT22;45733;52.668;6.860;2023-09-19T14:28:00;19.40;99.90
59857;DHT22;45733;52.668;6.860;2023-09-19T14:30:26;19.30;99.90
59857;DHT22;45733;52.668;6.860;2023-09-19T14:32:53;19.20;99.90
59857;DHT22;45733;52.668;6.860;2023-09-19T14:35:22;19.10;99.90
59857;DHT22;45733;52.668;6.860;2023-09-19T14:37:51;19.10;99.90
59857;DHT22;45733;52.668;6.860;2023-09-19T14:40:16;19.10;99.90
59857;DHT22;45733;52.668;6.860;2023-09-19T14:42:43;19.10;99.90
59857;DHT22;45733;52.668;6.860;2023-09-19T14:45:16;19.10;99.90
59857;DHT22;45733;52.668;6.860;2023-09-19T14:47:45;19.30;99.90
59857;DHT22;45733;52.668;6.860;2023-09-19T14:50:11;19.30;99.90
59857;DHT22;45733;52.668;6.860;2023-09-19T14:52:39;19.40;99.90
59857;DHT22;45733;52.668;6.860;2023-09-19T14:55:09;19.40;99.90
59857;DHT22;45733;52.668;6.860;2023-09-19T14:57:39;19.40;99.90
59857;DHT22;45733;52.668;6.860;2023-09-19T15:00:06;19.40;99.90
59857;DHT22;45733;52.668;6.860;2023-09-19T15:02:38;19.30;99.90
59857;DHT22;45733;52.668;6.860;2023-09-19T15:05:04;19.30;99.90
59857;DHT22;45733;52.668;6.860;2023-09-19T15:07:32;19.30;99.90
59857;DHT22;45733;52.668;6.860;2023-09-19T15:09:57;19.30;99.90
59857;DHT22;45733;52.668;6.860;2023-09-19T15:12:23;19.30;99.90
59857;DHT22;45733;52.668;6.860;2023-09-19T15:14:49;19.20;99.90
59857;DHT22;45733;52.668;6.860;2023-09-19T15:17:14;19.30;99.90
59857;DHT22;45733;52.668;6.860;2023-09-19T15:19:40;19.20;99.90
59857;DHT22;45733;52.668;6.860;2023-09-19T15:22:06;19.20;99.90
59857;DHT22;45733;52.668;6.860;2023-09-19T15:24:32;19.30;99.90
59857;DHT22;45733;52.668;6.860;2023-09-19T15:27:01;19.30;99.90
59857;DHT22;45733;52.668;6.860;2023-09-19T15:29:27;19.30;99.90
59857;DHT22;45733;52.668;6.860;2023-09-19T15:31:58;19.20;99.90
59857;DHT22;45733;52.668;6.860;2023-09-19T15:34:27;19.20;99.90
59857;DHT22;45733;52.668;6.860;2023-09-19T15:36:54;19.20;99.90
59857;DHT22;45733;52.668;6.860;2023-09-19T15:39:20;19.20;99.90
59857;DHT22;45733;52.668;6.860;2023-09-19T15:41:48;19.20;99.90
59857;DHT22;45733;52.668;6.860;2023-09-19T15:44:19;19.20;99.90
59857;DHT22;45733;52.668;6.860;2023-09-19T15:46:45;19.10;99.90
59857;DHT22;45733;52.668;6.860;2023-09-19T15:49:11;19.10;99.90
59857;DHT22;45733;52.668;6.860;2023-09-19T15:51:38;19.10;99.90
59857;DHT22;45733;52.668;6.860;2023-09-19T15:54:10;19.10;99.90
59857;DHT22;45733;52.668;6.860;2023-09-19T15:56:36;19.10;99.90
59857;DHT22;45733;52.668;6.860;2023-09-19T15:59:02;19.10;99.90
59857;DHT22;45733;52.668;6.860;2023-09-19T16:01:29;19.00;99.90
59857;DHT22;45733;52.668;6.860;2023-09-19T16:03:55;19.00;99.90
59857;DHT22;45733;52.668;6.860;2023-09-19T16:06:26;19.00;99.90
59857;DHT22;45733;52.668;6.860;2023-09-19T16:08:55;19.00;99.90
59857;DHT22;45733;52.668;6.860;2023-09-19T16:11:22;19.00;99.90
59857;DHT22;45733;52.668;6.860;2023-09-19T16:13:51;19.00;99.90
59857;DHT22;45733;52.668;6.860;2023-09-19T16:16:18;19.00;99.90
59857;DHT22;45733;52.668;6.860;2023-09-19T16:18:52;19.00;99.90
59857;DHT22;45733;52.668;6.860;2023-09-19T16:21:18;19.00;99.90
59857;DHT22;45733;52.668;6.860;2023-09-19T16:23:48;19.00;99.90
59857;DHT22;45733;52.668;6.860;2023-09-19T16:26:17;19.00;99.90
59857;DHT22;45733;52.668;6.860;2023-09-19T16:28:45;19.00;99.90
59857;DHT22;45733;52.668;6.860;2023-09-19T16:31:12;19.00;99.90
59857;DHT22;45733;52.668;6.860;2023-09-19T16:33:40;19.00;99.90